createdAt,value
2018-07-20T00:00:08.033Z,24.89
2018-07-20T00:01:08.044Z,24.84
2018-07-20T00:02:08.051Z,24.89
2018-07-20T00:03:08.054Z,24.81
2018-07-20T00:04:08.062Z,24.85
2018-07-20T00:05:08.071Z,24.81
2018-07-20T00:06:08.079Z,24.76
2018-07-20T00:07:08.088Z,24.73
2018-07-20T00:08:08.115Z,24.80
2018-07-20T00:09:08.102Z,24.65
2018-07-20T00:10:08.110Z,24.73
2018-07-20T00:11:08.116Z,24.68
2018-07-20T00:12:08.124Z,24.60
2018-07-20T00:13:08.136Z,24.65
2018-07-20T00:14:08.143Z,24.69
2018-07-20T00:15:08.147Z,24.66
2018-07-20T00:16:08.161Z,24.66
2018-07-20T00:17:08.165Z,24.80
2018-07-20T00:18:08.176Z,24.74
2018-07-20T00:19:08.180Z,24.66
2018-07-20T00:20:08.190Z,24.70
2018-07-20T00:21:08.194Z,24.65
2018-07-20T00:22:08.233Z,24.58
2018-07-20T00:23:08.216Z,24.65
2018-07-20T00:24:08.223Z,24.58
2018-07-20T00:25:08.223Z,24.60
2018-07-20T00:26:08.242Z,24.61
2018-07-20T00:27:08.245Z,24.66
2018-07-20T00:28:08.257Z,24.66
2018-07-20T00:29:08.258Z,24.73
2018-07-20T00:30:08.263Z,24.66
2018-07-20T00:31:08.271Z,24.70
2018-07-20T00:32:08.286Z,24.68
2018-07-20T00:33:08.287Z,24.66
2018-07-20T00:34:08.302Z,24.77
2018-07-20T00:35:08.302Z,24.78
2018-07-20T00:36:08.312Z,24.66
2018-07-20T00:37:08.322Z,24.74
2018-07-20T00:38:08.324Z,24.80
2018-07-20T00:39:08.332Z,24.73
2018-07-20T00:40:08.344Z,24.76
2018-07-20T00:41:08.350Z,24.89
2018-07-20T00:42:08.361Z,24.86
2018-07-20T00:43:08.370Z,24.85
2018-07-20T00:44:08.373Z,24.86
2018-07-20T00:45:08.381Z,24.92
2018-07-20T00:46:08.388Z,24.92
2018-07-20T00:47:08.399Z,24.95
2018-07-20T00:48:08.403Z,24.95
2018-07-20T00:49:08.411Z,24.92
2018-07-20T00:50:08.418Z,24.88
2018-07-20T00:51:08.426Z,24.98
2018-07-20T00:52:08.435Z,24.96
2018-07-20T00:53:08.444Z,25.01
2018-07-20T00:54:08.453Z,24.96
2018-07-20T00:55:08.460Z,25.01
2018-07-20T00:56:08.470Z,25.03
2018-07-20T00:57:08.473Z,25.03
2018-07-20T00:58:08.483Z,25.04
2018-07-20T00:59:08.488Z,25.06
2018-07-20T01:00:08.496Z,25.04
2018-07-20T01:01:08.500Z,25.06
2018-07-20T01:02:08.511Z,25.01
2018-07-20T01:03:08.522Z,25.04
2018-07-20T01:04:08.526Z,25.04
2018-07-20T01:05:08.538Z,25.08
2018-07-20T01:06:08.541Z,25.03
2018-07-20T01:07:08.552Z,25.03
2018-07-20T01:08:08.556Z,25.04
2018-07-20T01:09:08.568Z,25.04
2018-07-20T01:10:08.570Z,25.07
2018-07-20T01:11:08.578Z,25.03
2018-07-20T01:12:08.589Z,25.01
2018-07-20T01:13:08.595Z,25.01
2018-07-20T01:14:08.605Z,25.01
2018-07-20T01:15:08.612Z,25.11
2018-07-20T01:16:08.622Z,25.07
2018-07-20T01:17:08.627Z,25.06
2018-07-20T01:18:08.638Z,25.03
2018-07-20T01:19:08.642Z,25.18
2018-07-20T01:20:08.651Z,25.18
2018-07-20T01:21:08.655Z,25.17
2018-07-20T01:22:08.667Z,25.14
2018-07-20T01:23:08.677Z,25.21
2018-07-20T01:24:08.683Z,25.23
2018-07-20T01:25:08.690Z,25.28
2018-07-20T01:26:08.701Z,25.23
2018-07-20T01:27:08.706Z,25.22
2018-07-20T01:28:08.712Z,25.18
2018-07-20T01:29:08.724Z,25.29
2018-07-20T01:30:08.729Z,25.28
2018-07-20T01:31:08.740Z,25.29
2018-07-20T01:32:08.743Z,25.26
2018-07-20T01:33:08.752Z,25.18
2018-07-20T01:34:08.764Z,25.18
2018-07-20T01:35:08.772Z,25.18
2018-07-20T01:36:08.779Z,25.29
2018-07-20T01:37:08.787Z,25.31
2018-07-20T01:38:08.791Z,25.29
2018-07-20T01:39:08.802Z,25.18
2018-07-20T01:40:08.804Z,25.35
2018-07-20T01:41:08.822Z,25.32
2018-07-20T01:42:08.821Z,25.31
2018-07-20T01:43:08.833Z,25.33
2018-07-20T01:44:08.839Z,25.38
2018-07-20T01:45:08.847Z,25.36
2018-07-20T01:46:08.851Z,25.33
2018-07-20T01:47:08.861Z,25.35
2018-07-20T01:48:08.874Z,25.31
2018-07-20T01:49:08.882Z,25.29
2018-07-20T01:50:08.889Z,25.22
2018-07-20T01:51:08.897Z,25.32
2018-07-20T01:52:08.903Z,25.33
2018-07-20T01:53:08.908Z,25.18
2018-07-20T01:54:08.922Z,25.21
2018-07-20T01:55:08.928Z,25.31
2018-07-20T01:56:08.936Z,25.32
2018-07-20T01:57:08.939Z,25.32
2018-07-20T01:58:08.950Z,25.26
2018-07-20T01:59:08.959Z,25.32
2018-07-20T02:00:08.968Z,25.35
2018-07-20T02:01:08.975Z,25.32
2018-07-20T02:02:08.985Z,25.31
2018-07-20T02:03:08.988Z,25.31
2018-07-20T02:04:08.998Z,25.35
2018-07-20T02:05:09.002Z,25.36
2018-07-20T02:06:09.013Z,25.36
2018-07-20T02:07:09.020Z,25.36
2018-07-20T02:08:09.033Z,25.33
2018-07-20T02:09:09.044Z,25.36
2018-07-20T02:10:09.051Z,25.41
2018-07-20T02:11:09.056Z,25.36
2018-07-20T02:12:09.061Z,25.36
2018-07-20T02:13:09.071Z,25.38
2018-07-20T02:14:09.083Z,25.32
2018-07-20T02:15:09.089Z,25.36
2018-07-20T02:16:09.094Z,25.36
2018-07-20T02:17:09.099Z,25.33
2018-07-20T02:18:09.111Z,25.36
2018-07-20T02:19:09.116Z,25.33
2018-07-20T02:20:09.126Z,25.40
2018-07-20T02:21:09.131Z,25.36
2018-07-20T02:22:09.144Z,25.38
2018-07-20T02:23:09.166Z,25.40
2018-07-20T02:24:09.160Z,25.40
2018-07-20T02:25:09.164Z,25.38
2018-07-20T02:26:09.175Z,25.33
2018-07-20T02:27:09.185Z,25.32
2018-07-20T02:28:09.192Z,25.32
2018-07-20T02:29:09.196Z,25.32
2018-07-20T02:30:09.217Z,25.32
2018-07-20T02:31:09.216Z,25.35
2018-07-20T02:32:09.221Z,25.29
2018-07-20T02:33:09.235Z,25.32
2018-07-20T02:34:09.244Z,25.31
2018-07-20T02:35:09.247Z,25.26
2018-07-20T02:36:09.254Z,25.29
2018-07-20T02:37:09.262Z,25.25
2018-07-20T02:38:09.276Z,25.23
2018-07-20T02:39:09.285Z,25.25
2018-07-20T02:40:09.284Z,25.29
2018-07-20T02:41:09.298Z,25.28
2018-07-20T02:42:09.311Z,25.26
2018-07-20T02:43:09.313Z,25.18
2018-07-20T02:44:09.319Z,25.23
2018-07-20T02:45:09.331Z,25.22
2018-07-20T02:46:09.336Z,25.17
2018-07-20T02:47:09.344Z,25.18
2018-07-20T02:48:09.355Z,25.22
2018-07-20T02:49:09.360Z,25.13
2018-07-20T02:50:09.368Z,25.21
2018-07-20T02:51:09.377Z,25.10
2018-07-20T02:52:09.384Z,25.06
2018-07-20T02:53:09.391Z,25.06
2018-07-20T02:54:09.402Z,25.06
2018-07-20T02:55:09.408Z,25.04
2018-07-20T02:56:09.417Z,25.06
2018-07-20T02:57:09.424Z,24.98
2018-07-20T02:58:09.434Z,25.03
2018-07-20T02:59:09.444Z,25.04
2018-07-20T03:00:09.445Z,25.07
2018-07-20T03:01:09.456Z,25.06
2018-07-20T03:02:09.465Z,24.96
2018-07-20T03:03:09.472Z,24.92
2018-07-20T03:04:09.487Z,24.98
2018-07-20T03:05:09.484Z,24.99
2018-07-20T03:06:09.497Z,24.96
2018-07-20T03:07:09.503Z,24.96
2018-07-20T03:08:09.514Z,24.99
2018-07-20T03:09:09.571Z,24.98
2018-07-20T03:10:09.527Z,24.92
2018-07-20T03:11:09.535Z,24.93
2018-07-20T03:12:09.543Z,24.98
2018-07-20T03:13:09.551Z,24.95
2018-07-20T03:14:09.563Z,25.03
2018-07-20T03:15:09.570Z,24.92
2018-07-20T03:16:09.576Z,24.99
2018-07-20T03:17:09.580Z,24.89
2018-07-20T03:18:09.588Z,25.06
2018-07-20T03:19:09.602Z,24.98
2018-07-20T03:20:09.603Z,24.86
2018-07-20T03:21:09.705Z,24.99
2018-07-20T03:22:09.623Z,24.89
2018-07-20T03:23:09.633Z,24.92
2018-07-20T03:24:09.636Z,24.89
2018-07-20T03:25:09.648Z,24.86
2018-07-20T03:26:09.651Z,24.88
2018-07-20T03:27:09.662Z,24.86
2018-07-20T03:28:09.675Z,24.92
2018-07-20T03:29:09.676Z,24.89
2018-07-20T03:30:09.687Z,24.89
2018-07-20T03:31:09.697Z,24.86
2018-07-20T03:32:09.702Z,24.93
2018-07-20T03:33:09.712Z,24.92
2018-07-20T03:34:09.720Z,24.92
2018-07-20T03:35:09.729Z,24.92
2018-07-20T03:36:09.736Z,24.86
2018-07-20T03:37:09.744Z,24.93
2018-07-20T03:38:09.747Z,24.86
2018-07-20T03:39:09.755Z,24.93
2018-07-20T03:40:09.766Z,24.89
2018-07-20T03:41:09.781Z,24.88
2018-07-20T03:42:09.785Z,24.86
2018-07-20T03:43:09.791Z,24.81
2018-07-20T03:44:09.800Z,24.84
2018-07-20T03:45:09.800Z,24.84
2018-07-20T03:46:09.815Z,24.86
2018-07-20T03:47:09.823Z,24.76
2018-07-20T03:48:09.825Z,24.85
2018-07-20T03:49:09.831Z,24.77
2018-07-20T03:50:09.841Z,24.80
2018-07-20T03:51:09.849Z,24.78
2018-07-20T03:52:09.910Z,24.81
2018-07-20T03:53:09.868Z,24.77
2018-07-20T03:54:09.871Z,24.70
2018-07-20T03:55:09.880Z,24.68
2018-07-20T03:56:09.889Z,24.80
2018-07-20T03:57:09.900Z,24.80
2018-07-20T03:58:09.905Z,24.80
2018-07-20T03:59:09.915Z,24.73
2018-07-20T04:00:09.916Z,24.76
2018-07-20T04:01:09.924Z,24.65
2018-07-20T04:02:09.940Z,24.73
2018-07-20T04:03:09.943Z,24.66
2018-07-20T04:04:09.950Z,24.69
2018-07-20T04:05:09.959Z,24.74
2018-07-20T04:06:09.968Z,24.68
2018-07-20T04:07:09.971Z,24.61
2018-07-20T04:08:09.996Z,24.66
2018-07-20T04:09:09.993Z,24.68
2018-07-20T04:10:10.050Z,24.68
2018-07-20T04:11:10.004Z,24.61
2018-07-20T04:12:10.015Z,24.57
2018-07-20T04:13:10.020Z,24.58
2018-07-20T04:14:10.028Z,24.63
2018-07-20T04:15:10.038Z,24.63
2018-07-20T04:16:10.044Z,24.66
2018-07-20T04:17:10.049Z,24.60
2018-07-20T04:18:10.057Z,24.63
2018-07-20T04:19:10.070Z,24.60
2018-07-20T04:20:10.073Z,24.51
2018-07-20T04:21:10.078Z,24.61
2018-07-20T04:22:10.093Z,24.55
2018-07-20T04:23:10.100Z,24.58
2018-07-20T04:24:10.106Z,24.51
2018-07-20T04:25:10.116Z,24.48
2018-07-20T04:26:10.120Z,24.53
2018-07-20T04:27:10.124Z,24.50
2018-07-20T04:28:10.134Z,24.51
2018-07-20T04:29:10.145Z,24.58
2018-07-20T04:30:10.147Z,24.50
2018-07-20T04:31:10.155Z,24.54
2018-07-20T04:32:10.167Z,24.55
2018-07-20T04:33:10.173Z,24.50
2018-07-20T04:34:10.178Z,24.61
2018-07-20T04:35:10.184Z,24.63
2018-07-20T04:36:10.197Z,24.60
2018-07-20T04:37:10.200Z,24.63
2018-07-20T04:38:10.210Z,24.68
2018-07-20T04:39:10.218Z,24.69
2018-07-20T04:40:10.222Z,24.77
2018-07-20T04:41:10.233Z,24.66
2018-07-20T04:42:10.237Z,24.69
2018-07-20T04:43:10.251Z,24.73
2018-07-20T04:44:10.252Z,24.74
2018-07-20T04:45:10.263Z,24.91
2018-07-20T04:46:10.269Z,24.77
2018-07-20T04:47:10.279Z,24.81
2018-07-20T04:48:10.283Z,24.80
2018-07-20T04:49:10.293Z,24.85
2018-07-20T04:50:10.304Z,24.84
2018-07-20T04:51:10.308Z,24.86
2018-07-20T04:52:10.315Z,24.89
2018-07-20T04:53:10.321Z,24.89
2018-07-20T04:54:10.334Z,24.88
2018-07-20T04:55:10.340Z,24.91
2018-07-20T04:56:10.345Z,24.92
2018-07-20T04:57:10.357Z,24.91
2018-07-20T04:58:10.358Z,24.89
2018-07-20T04:59:10.370Z,24.92
2018-07-20T05:00:10.376Z,24.91
2018-07-20T05:01:10.384Z,24.91
2018-07-20T05:02:10.393Z,24.89
2018-07-20T05:03:10.400Z,24.89
2018-07-20T05:04:10.498Z,24.89
2018-07-20T05:05:10.414Z,24.98
2018-07-20T05:06:10.425Z,24.91
2018-07-20T05:07:10.433Z,24.96
2018-07-20T05:08:10.438Z,24.92
2018-07-20T05:09:10.442Z,24.89
2018-07-20T05:10:10.453Z,24.86
2018-07-20T05:11:10.458Z,24.89
2018-07-20T05:12:10.465Z,24.91
2018-07-20T05:13:10.476Z,24.93
2018-07-20T05:14:10.486Z,24.92
2018-07-20T05:15:10.491Z,24.93
2018-07-20T05:16:10.502Z,24.88
2018-07-20T05:17:10.509Z,24.99
2018-07-20T05:18:10.517Z,25.03
2018-07-20T05:19:10.529Z,24.96
2018-07-20T05:20:10.530Z,25.06
2018-07-20T05:21:10.535Z,25.08
2018-07-20T05:22:10.547Z,25.11
2018-07-20T05:23:10.569Z,25.10
2018-07-20T05:24:10.581Z,25.18
2018-07-20T05:25:10.569Z,25.21
2018-07-20T05:26:10.576Z,25.18
2018-07-20T05:27:10.588Z,25.25
2018-07-20T05:28:10.591Z,25.23
2018-07-20T05:29:10.601Z,25.21
2018-07-20T05:30:10.611Z,25.29
2018-07-20T05:31:10.616Z,25.32
2018-07-20T05:32:10.621Z,25.41
2018-07-20T05:33:10.630Z,25.35
2018-07-20T05:34:10.643Z,25.36
2018-07-20T05:35:10.646Z,25.44
2018-07-20T05:36:10.656Z,25.46
2018-07-20T05:37:10.660Z,25.51
2018-07-20T05:38:10.696Z,25.54
2018-07-20T05:39:10.677Z,25.47
2018-07-20T05:40:10.689Z,25.58
2018-07-20T05:41:10.687Z,25.58
2018-07-20T05:42:10.698Z,25.53
2018-07-20T05:43:10.706Z,25.53
2018-07-20T05:44:10.723Z,25.58
2018-07-20T05:45:10.724Z,25.66
2018-07-20T05:46:10.731Z,25.68
2018-07-20T05:47:10.739Z,25.66
2018-07-20T05:48:10.745Z,25.77
2018-07-20T05:49:10.751Z,25.75
2018-07-20T05:50:10.761Z,25.77
2018-07-20T05:51:10.775Z,25.84
2018-07-20T05:52:10.779Z,25.84
2018-07-20T05:53:10.783Z,25.85
2018-07-20T05:54:10.799Z,25.84
2018-07-20T05:55:10.804Z,25.91
2018-07-20T05:56:10.813Z,25.98
2018-07-20T05:57:10.819Z,25.91
2018-07-20T05:58:10.824Z,25.93
2018-07-20T05:59:10.832Z,25.96
2018-07-20T06:00:10.860Z,26.03
2018-07-20T06:01:10.849Z,26.03
2018-07-20T06:02:10.861Z,25.99
2018-07-20T06:03:10.867Z,25.99
2018-07-20T06:04:10.953Z,26.09
2018-07-20T06:05:10.885Z,26.03
2018-07-20T06:06:10.887Z,26.10
2018-07-20T06:07:10.899Z,26.09
2018-07-20T06:08:10.910Z,26.15
2018-07-20T06:09:10.915Z,26.15
2018-07-20T06:10:10.926Z,26.07
2018-07-20T06:11:10.930Z,26.16
2018-07-20T06:12:10.939Z,26.10
2018-07-20T06:13:10.947Z,26.22
2018-07-20T06:14:11.008Z,26.22
2018-07-20T06:15:10.967Z,26.31
2018-07-20T06:16:10.971Z,26.33
2018-07-20T06:17:10.980Z,26.34
2018-07-20T06:18:10.988Z,26.37
2018-07-20T06:19:10.993Z,26.40
2018-07-20T06:20:11.001Z,26.43
2018-07-20T06:21:11.014Z,26.37
2018-07-20T06:22:11.022Z,26.45
2018-07-20T06:23:11.029Z,26.37
2018-07-20T06:24:11.033Z,26.47
2018-07-20T06:25:11.041Z,26.45
2018-07-20T06:26:11.051Z,26.41
2018-07-20T06:27:11.063Z,26.51
2018-07-20T06:28:11.070Z,26.48
2018-07-20T06:29:11.080Z,26.52
2018-07-20T06:30:11.084Z,26.48
2018-07-20T06:31:11.095Z,26.47
2018-07-20T06:32:11.106Z,26.41
2018-07-20T06:33:11.111Z,26.52
2018-07-20T06:34:11.121Z,26.47
2018-07-20T06:35:11.130Z,26.47
2018-07-20T06:36:11.136Z,26.43
2018-07-20T06:37:11.150Z,26.43
2018-07-20T06:38:11.155Z,26.47
2018-07-20T06:39:11.164Z,26.56
2018-07-20T06:40:11.172Z,26.60
2018-07-20T06:41:11.178Z,26.65
2018-07-20T06:42:11.186Z,26.58
2018-07-20T06:43:11.191Z,26.66
2018-07-20T06:44:11.200Z,26.68
2018-07-20T06:45:11.217Z,26.70
2018-07-20T06:46:11.222Z,26.71
2018-07-20T06:47:11.226Z,26.65
2018-07-20T06:48:11.236Z,26.71
2018-07-20T06:49:11.245Z,26.73
2018-07-20T06:50:11.263Z,26.66
2018-07-20T06:51:11.267Z,26.65
2018-07-20T06:52:11.269Z,26.71
2018-07-20T06:53:11.278Z,26.71
2018-07-20T06:54:11.290Z,26.66
2018-07-20T06:55:11.294Z,26.70
2018-07-20T06:56:11.307Z,26.78
2018-07-20T06:57:11.317Z,26.80
2018-07-20T06:58:11.323Z,26.80
2018-07-20T06:59:11.332Z,26.81
2018-07-20T07:00:11.342Z,26.88
2018-07-20T07:01:11.346Z,26.93
2018-07-20T07:02:11.356Z,26.84
2018-07-20T07:03:11.364Z,26.93
2018-07-20T07:04:11.369Z,26.84
2018-07-20T07:05:11.392Z,26.92
2018-07-20T07:06:11.394Z,26.96
2018-07-20T07:07:11.403Z,26.92
2018-07-20T07:08:11.404Z,26.95
2018-07-20T07:09:11.417Z,27.10
2018-07-20T07:10:11.425Z,26.99
2018-07-20T07:11:11.432Z,27.10
2018-07-20T07:12:11.442Z,27.08
2018-07-20T07:13:11.449Z,27.08
2018-07-20T07:14:11.464Z,27.14
2018-07-20T07:15:11.485Z,27.15
2018-07-20T07:16:11.479Z,27.17
2018-07-20T07:17:11.484Z,27.15
2018-07-20T07:18:11.493Z,27.21
2018-07-20T07:19:11.508Z,27.20
2018-07-20T07:20:11.515Z,27.26
2018-07-20T07:21:11.527Z,27.35
2018-07-20T07:22:11.563Z,27.37
2018-07-20T07:23:11.538Z,27.39
2018-07-20T07:24:11.547Z,27.37
2018-07-20T07:25:11.556Z,27.44
2018-07-20T07:26:11.566Z,27.42
2018-07-20T07:27:11.572Z,27.47
2018-07-20T07:28:11.583Z,27.51
2018-07-20T07:29:11.646Z,27.35
2018-07-20T07:30:11.600Z,27.22
2018-07-20T07:31:11.608Z,27.18
2018-07-20T07:32:11.617Z,27.03
2018-07-20T07:33:11.626Z,27.02
2018-07-20T07:34:11.635Z,26.97
2018-07-20T07:35:11.647Z,26.96
2018-07-20T07:36:11.652Z,27.00
2018-07-20T07:37:11.660Z,26.96
2018-07-20T07:38:11.674Z,26.97
2018-07-20T07:39:11.680Z,26.93
2018-07-20T07:40:11.702Z,26.85
2018-07-20T07:41:11.700Z,26.80
2018-07-20T07:42:11.751Z,26.74
2018-07-20T07:43:11.716Z,26.70
2018-07-20T07:44:11.720Z,26.73
2018-07-20T07:45:11.743Z,26.66
2018-07-20T07:46:11.742Z,26.74
2018-07-20T07:47:11.754Z,26.83
2018-07-20T07:48:11.767Z,26.83
2018-07-20T07:49:11.777Z,26.95
2018-07-20T07:50:11.779Z,27.05
2018-07-20T07:51:11.786Z,27.02
2018-07-20T07:52:11.792Z,27.11
2018-07-20T07:53:11.793Z,27.14
2018-07-20T07:54:11.808Z,27.20
2018-07-20T07:55:11.820Z,27.20
2018-07-20T07:56:11.834Z,27.20
2018-07-20T07:57:11.838Z,27.25
2018-07-20T07:58:11.849Z,27.32
2018-07-20T07:59:11.859Z,27.32
2018-07-20T08:00:11.864Z,27.49
2018-07-20T08:01:11.873Z,27.51
2018-07-20T08:02:11.876Z,27.54
2018-07-20T08:03:11.959Z,27.55
2018-07-20T08:04:11.897Z,27.47
2018-07-20T08:05:11.908Z,27.59
2018-07-20T08:06:11.917Z,27.52
2018-07-20T08:07:11.923Z,27.51
2018-07-20T08:08:11.936Z,27.49
2018-07-20T08:09:11.945Z,27.54
2018-07-20T08:10:11.996Z,27.54
2018-07-20T08:11:11.963Z,27.68
2018-07-20T08:12:11.969Z,27.70
2018-07-20T08:13:11.977Z,27.65
2018-07-20T08:14:11.984Z,27.70
2018-07-20T08:15:11.997Z,27.75
2018-07-20T08:16:12.005Z,27.82
2018-07-20T08:17:12.015Z,27.74
2018-07-20T08:18:12.020Z,27.77
2018-07-20T08:19:12.032Z,27.77
2018-07-20T08:20:12.040Z,27.71
2018-07-20T08:21:12.049Z,27.71
2018-07-20T08:22:12.062Z,27.63
2018-07-20T08:23:12.073Z,27.60
2018-07-20T08:24:12.077Z,27.60
2018-07-20T08:25:12.085Z,27.64
2018-07-20T08:26:12.095Z,27.70
2018-07-20T08:27:12.109Z,27.82
2018-07-20T08:28:12.111Z,27.78
2018-07-20T08:29:12.128Z,27.80
2018-07-20T08:30:12.132Z,27.93
2018-07-20T08:31:12.137Z,27.95
2018-07-20T08:32:12.152Z,28.02
2018-07-20T08:33:12.162Z,28.07
2018-07-20T08:34:12.167Z,28.14
2018-07-20T08:35:12.182Z,28.15
2018-07-20T08:36:12.185Z,28.25
2018-07-20T08:37:12.195Z,28.22
2018-07-20T08:38:12.208Z,28.33
2018-07-20T08:39:12.212Z,28.38
2018-07-20T08:40:12.223Z,28.33
2018-07-20T08:41:12.246Z,28.41
2018-07-20T08:42:12.246Z,28.33
2018-07-20T08:43:12.250Z,28.42
2018-07-20T08:44:12.261Z,28.44
2018-07-20T08:45:12.270Z,28.41
2018-07-20T08:46:12.279Z,28.49
2018-07-20T08:47:12.294Z,28.52
2018-07-20T08:48:12.301Z,28.49
2018-07-20T08:49:12.310Z,28.52
2018-07-20T08:50:12.317Z,28.54
2018-07-20T08:51:12.328Z,28.62
2018-07-20T08:52:12.336Z,28.63
2018-07-20T08:53:12.347Z,28.56
2018-07-20T08:54:12.361Z,28.59
2018-07-20T08:55:12.368Z,28.57
2018-07-20T08:56:12.373Z,28.66
2018-07-20T08:57:12.390Z,28.67
2018-07-20T08:58:12.397Z,28.66
2018-07-20T08:59:12.409Z,28.66
2018-07-20T09:00:12.417Z,28.66
2018-07-20T09:01:12.422Z,28.69
2018-07-20T09:02:12.477Z,28.79
2018-07-20T09:03:12.448Z,28.76
2018-07-20T09:04:12.457Z,28.78
2018-07-20T09:05:12.474Z,28.81
2018-07-20T09:06:12.478Z,28.78
2018-07-20T09:07:12.492Z,28.82
2018-07-20T09:08:12.497Z,28.86
2018-07-20T09:09:12.508Z,28.88
2018-07-20T09:10:12.523Z,28.89
2018-07-20T09:11:12.526Z,28.86
2018-07-20T09:12:12.535Z,28.93
2018-07-20T09:13:12.544Z,28.91
2018-07-20T09:14:12.555Z,29.02
2018-07-20T09:15:12.563Z,28.97
2018-07-20T09:16:12.577Z,29.04
2018-07-20T09:17:12.585Z,28.98
2018-07-20T09:18:12.604Z,29.08
2018-07-20T09:19:12.608Z,29.05
2018-07-20T09:20:12.615Z,29.07
2018-07-20T09:21:12.627Z,29.14
2018-07-20T09:22:12.634Z,29.13
2018-07-20T09:23:12.647Z,29.16
2018-07-20T09:24:12.652Z,29.16
2018-07-20T09:25:12.668Z,29.14
2018-07-20T09:26:12.677Z,29.17
2018-07-20T09:27:12.688Z,29.20
2018-07-20T09:28:12.745Z,29.17
2018-07-20T09:29:12.705Z,29.22
2018-07-20T09:30:12.718Z,29.24
2018-07-20T09:31:12.727Z,29.19
2018-07-20T09:32:12.734Z,29.23
2018-07-20T09:33:12.747Z,29.23
2018-07-20T09:34:12.784Z,29.27
2018-07-20T09:35:12.765Z,29.27
2018-07-20T09:36:12.775Z,29.27
2018-07-20T09:37:12.787Z,29.32
2018-07-20T09:38:12.794Z,29.29
2018-07-20T09:39:12.810Z,29.35
2018-07-20T09:40:12.819Z,29.34
2018-07-20T09:41:12.824Z,29.31
2018-07-20T09:42:12.837Z,29.34
2018-07-20T09:43:12.851Z,29.31
2018-07-20T09:44:12.887Z,29.32
2018-07-20T09:45:12.864Z,29.35
2018-07-20T09:46:12.880Z,29.34
2018-07-20T09:47:12.892Z,29.36
2018-07-20T09:48:12.901Z,29.34
2018-07-20T09:49:12.908Z,29.29
2018-07-20T09:50:12.921Z,29.29
2018-07-20T09:51:12.930Z,29.36
2018-07-20T09:52:12.946Z,29.32
2018-07-20T09:53:12.949Z,29.39
2018-07-20T09:54:12.961Z,29.38
2018-07-20T09:55:12.967Z,29.36
2018-07-20T09:56:12.982Z,29.35
2018-07-20T09:57:12.989Z,29.20
2018-07-20T09:58:13.000Z,29.29
2018-07-20T09:59:13.008Z,29.24
2018-07-20T10:00:13.023Z,29.20
2018-07-20T10:01:13.031Z,29.19
2018-07-20T10:02:13.042Z,29.22
2018-07-20T10:03:13.055Z,29.19
2018-07-20T10:04:13.060Z,29.22
2018-07-20T10:05:13.073Z,29.23
2018-07-20T10:06:13.100Z,29.26
2018-07-20T10:07:13.090Z,29.24
2018-07-20T10:08:13.105Z,29.26
2018-07-20T10:09:13.117Z,29.20
2018-07-20T10:10:13.126Z,29.22
2018-07-20T10:11:13.134Z,29.26
2018-07-20T10:12:13.144Z,29.23
2018-07-20T10:13:13.153Z,29.27
2018-07-20T10:14:13.163Z,29.34
2018-07-20T10:15:13.176Z,29.34
2018-07-20T10:16:13.185Z,29.39
2018-07-20T10:17:13.198Z,29.32
2018-07-20T10:18:13.203Z,29.34
2018-07-20T10:19:13.305Z,29.32
2018-07-20T10:20:13.229Z,29.36
2018-07-20T10:21:13.239Z,29.32
2018-07-20T10:22:13.243Z,29.36
2018-07-20T10:23:13.262Z,29.41
2018-07-20T10:24:13.269Z,29.42
2018-07-20T10:25:13.279Z,29.44
2018-07-20T10:26:13.285Z,29.44
2018-07-20T10:27:13.297Z,29.44
2018-07-20T10:28:13.304Z,29.39
2018-07-20T10:29:13.323Z,29.44
2018-07-20T10:30:13.344Z,29.50
2018-07-20T10:31:13.339Z,29.56
2018-07-20T10:32:13.348Z,29.50
2018-07-20T10:33:13.360Z,29.45
2018-07-20T10:34:13.369Z,29.56
2018-07-20T10:35:13.377Z,29.50
2018-07-20T10:36:13.388Z,29.47
2018-07-20T10:37:13.398Z,29.56
2018-07-20T10:38:13.420Z,29.51
2018-07-20T10:39:13.419Z,29.54
2018-07-20T10:40:13.432Z,29.47
2018-07-20T10:41:13.442Z,29.53
2018-07-20T10:42:13.452Z,29.49
2018-07-20T10:43:13.494Z,29.51
2018-07-20T10:44:13.475Z,29.56
2018-07-20T10:45:13.481Z,29.49
2018-07-20T10:46:13.493Z,29.51
2018-07-20T10:47:13.504Z,29.47
2018-07-20T10:48:13.517Z,29.45
2018-07-20T10:49:13.525Z,29.54
2018-07-20T10:50:13.536Z,29.41
2018-07-20T10:51:13.542Z,29.44
2018-07-20T10:52:13.553Z,29.50
2018-07-20T10:53:13.565Z,29.51
2018-07-20T10:54:13.572Z,29.49
2018-07-20T10:55:13.590Z,29.51
2018-07-20T10:56:13.597Z,29.56
2018-07-20T10:57:13.605Z,29.59
2018-07-20T10:58:13.617Z,29.53
2018-07-20T10:59:13.630Z,29.59
2018-07-20T11:00:13.642Z,29.60
2018-07-20T11:01:13.652Z,29.54
2018-07-20T11:02:13.660Z,29.54
2018-07-20T11:03:13.665Z,29.51
2018-07-20T11:04:13.679Z,29.50
2018-07-20T11:05:13.688Z,29.54
2018-07-20T11:06:13.692Z,29.56
2018-07-20T11:07:13.709Z,29.56
2018-07-20T11:08:13.718Z,29.61
2018-07-20T11:09:13.733Z,29.63
2018-07-20T11:10:13.742Z,29.57
2018-07-20T11:11:13.750Z,29.59
2018-07-20T11:12:13.765Z,29.50
2018-07-20T11:13:13.778Z,29.68
2018-07-20T11:14:13.780Z,29.60
2018-07-20T11:15:13.795Z,29.51
2018-07-20T11:16:13.804Z,29.57
2018-07-20T11:17:13.818Z,29.59
2018-07-20T11:18:13.827Z,29.57
2018-07-20T11:19:13.835Z,29.57
2018-07-20T11:20:13.922Z,29.54
2018-07-20T11:21:13.890Z,29.68
2018-07-20T11:22:13.864Z,29.61
2018-07-20T11:23:13.880Z,29.51
2018-07-20T11:24:13.890Z,29.57
2018-07-20T11:25:13.895Z,29.60
2018-07-20T11:26:13.912Z,29.54
2018-07-20T11:27:13.920Z,29.66
2018-07-20T11:28:13.933Z,29.59
2018-07-20T11:29:13.944Z,29.60
2018-07-20T11:30:13.952Z,29.60
2018-07-20T11:31:13.961Z,29.57
2018-07-20T11:32:13.974Z,29.59
2018-07-20T11:33:13.985Z,29.66
2018-07-20T11:34:13.994Z,29.65
2018-07-20T11:35:14.000Z,29.57
2018-07-20T11:36:14.015Z,29.66
2018-07-20T11:37:14.024Z,29.63
2018-07-20T11:38:14.036Z,29.57
2018-07-20T11:39:14.048Z,29.60
2018-07-20T11:40:14.055Z,29.57
2018-07-20T11:41:14.064Z,29.63
2018-07-20T11:42:14.080Z,29.63
2018-07-20T11:43:14.090Z,29.63
2018-07-20T11:44:14.103Z,29.54
2018-07-20T11:45:14.108Z,29.49
2018-07-20T11:46:14.141Z,29.51
2018-07-20T11:47:14.129Z,29.49
2018-07-20T11:48:14.139Z,29.45
2018-07-20T11:49:14.152Z,29.53
2018-07-20T11:50:14.160Z,29.50
2018-07-20T11:51:14.169Z,29.49
2018-07-20T11:52:14.182Z,29.45
2018-07-20T11:53:14.191Z,29.49
2018-07-20T11:54:14.201Z,29.49
2018-07-20T11:55:14.213Z,29.54
2018-07-20T11:56:14.218Z,29.49
2018-07-20T11:57:14.234Z,29.47
2018-07-20T11:58:14.246Z,29.49
2018-07-20T11:59:14.275Z,29.51
2018-07-20T12:00:14.261Z,29.45
2018-07-20T12:01:14.280Z,29.45
2018-07-20T12:02:14.284Z,29.44
2018-07-20T12:03:14.293Z,29.53
2018-07-20T12:04:14.302Z,29.42
2018-07-20T12:05:14.319Z,29.44
2018-07-20T12:06:14.329Z,29.39
2018-07-20T12:07:14.343Z,29.44
2018-07-20T12:08:14.346Z,29.41
2018-07-20T12:09:14.360Z,29.41
2018-07-20T12:10:14.368Z,29.36
2018-07-20T12:11:14.377Z,29.36
2018-07-20T12:12:14.389Z,29.41
2018-07-20T12:13:14.399Z,29.44
2018-07-20T12:14:14.411Z,29.47
2018-07-20T12:15:14.417Z,29.41
2018-07-20T12:16:14.425Z,29.41
2018-07-20T12:17:14.436Z,29.41
2018-07-20T12:18:14.450Z,29.38
2018-07-20T12:19:14.464Z,29.41
2018-07-20T12:20:14.470Z,29.41
2018-07-20T12:21:14.484Z,29.39
2018-07-20T12:22:14.496Z,29.38
2018-07-20T12:23:14.506Z,29.36
2018-07-20T12:24:14.519Z,29.42
2018-07-20T12:25:14.526Z,29.35
2018-07-20T12:26:14.538Z,29.36
2018-07-20T12:27:14.545Z,29.38
2018-07-20T12:28:14.609Z,29.36
2018-07-20T12:29:14.565Z,29.38
2018-07-20T12:30:14.577Z,29.36
2018-07-20T12:31:14.589Z,29.34
2018-07-20T12:32:14.594Z,29.42
2018-07-20T12:33:14.606Z,29.36
2018-07-20T12:34:14.623Z,29.34
2018-07-20T12:35:14.628Z,29.39
2018-07-20T12:36:14.638Z,29.32
2018-07-20T12:37:14.648Z,29.31
2018-07-20T12:38:14.660Z,29.36
2018-07-20T12:39:14.668Z,29.35
2018-07-20T12:40:14.677Z,29.38
2018-07-20T12:41:14.714Z,29.41
2018-07-20T12:42:14.702Z,29.32
2018-07-20T12:43:14.707Z,29.31
2018-07-20T12:44:14.720Z,29.27
2018-07-20T12:45:14.732Z,29.27
2018-07-20T12:46:14.742Z,29.31
2018-07-20T12:47:14.749Z,29.38
2018-07-20T12:48:14.758Z,29.31
2018-07-20T12:49:14.775Z,29.38
2018-07-20T12:50:14.852Z,29.36
2018-07-20T12:51:14.791Z,29.35
2018-07-20T12:52:14.801Z,29.35